TONO2: Salt Fork Arkansas R., Tonkawa, OK

Data processed at Fri Mar 09 2018 23:36


All information presented herein is the property of the government of the United States of America and may be revised or deleted at any time without prior notice.
Dissemination of this information without the expressed written consent of the Public Affairs Office, Tulsa District U.S. Army Corps of Engineers is strictly prohibited.
These data are gathered electronically and, as presented, have not undergone any form of quality control. These data are not guaranteed to be valid or correct.
Go to home page.
Go to station list.

Upstream stations:

Downstream station:
Previous Day
Next Day
Current Day
    
SHEF ID:       TONO2     Salt Fork Arkansas River at Tonk
STATION TYPE:  

               PRECIP     STAGE  STAGE(2)  RIV-FLOW  BAT-LOAD
                   in        ft        ft       cfs      volt
              Ccp-Rev   Ccp-Rev   Ccp-Rev   Ccp-Rev   Ccp-Rev
(US/Central)
03/07 00:00      0.00      3.42      3.29        89     12.57
03/07 01:00      0.00      3.42      3.28        89     12.57
03/07 02:00      0.00      3.43      3.29        91     12.57
03/07 03:00      0.00      3.45      3.33        95     12.49
03/07 04:00      0.00      3.48      3.33       101     12.49
03/07 05:00      0.00      3.50      3.36       105     12.41
03/07 06:00      0.00      3.54      3.42       114     12.41
03/07 07:00      0.00      3.58      3.46       123     12.33
03/07 08:00      0.00      3.63      3.51       135     12.41
03/07 09:00      0.00      3.67      3.56       145     13.92
03/07 10:00      0.00      3.71      3.58       155     14.80
03/07 11:00      0.00      3.72      3.61       158     14.00
03/07 12:00      0.00      3.75      3.62       166     13.92
03/07 13:00      0.00      3.77      3.63       171     13.84
03/07 14:00      0.00      3.78      3.66       174     13.68
03/07 15:00      0.00      3.77      3.64       171     13.44
03/07 16:00      0.00      3.78      3.64       174     13.60
03/07 17:00      0.00      3.76      3.63       168     13.53
03/07 18:00      0.00      3.77      3.65       171     13.37
03/07 19:00      0.00      3.75      3.63       166     13.05
03/07 20:00      0.00      3.74      3.63       163     12.73
03/07 21:00      0.00      3.73      3.59       160     12.65
03/07 22:00      0.00      3.69      3.58       150     12.65
03/07 23:00      0.00      3.69      3.57       150     12.65